sensor_id;sensor_type;location;lat;lon;timestamp;temperature;humidity
68943;DHT22;60852;52.190;4.422;2023-07-29T00:00:44;19.27;76.84
68943;DHT22;60852;52.190;4.422;2023-07-29T00:03:10;19.24;76.60
68943;DHT22;60852;52.190;4.422;2023-07-29T00:05:40;19.16;76.81
68943;DHT22;60852;52.190;4.422;2023-07-29T00:08:06;19.22;76.83
68943;DHT22;60852;52.190;4.422;2023-07-29T00:10:32;19.23;76.66
68943;DHT22;60852;52.190;4.422;2023-07-29T00:13:00;19.24;76.81
68943;DHT22;60852;52.190;4.422;2023-07-29T00:15:26;19.30;76.60
68943;DHT22;60852;52.190;4.422;2023-07-29T00:17:51;19.29;76.78
68943;DHT22;60852;52.190;4.422;2023-07-29T00:20:17;19.30;76.72
68943;DHT22;60852;52.190;4.422;2023-07-29T00:22:42;19.31;76.70
68943;DHT22;60852;52.190;4.422;2023-07-29T00:25:08;19.34;76.63
68943;DHT22;60852;52.190;4.422;2023-07-29T00:27:33;19.40;76.39
68943;DHT22;60852;52.190;4.422;2023-07-29T00:29:58;19.39;76.10
68943;DHT22;60852;52.190;4.422;2023-07-29T00:32:25;19.33;76.11
68943;DHT22;60852;52.190;4.422;2023-07-29T00:34:50;19.30;76.11
68943;DHT22;60852;52.190;4.422;2023-07-29T00:37:16;19.29;76.16
68943;DHT22;60852;52.190;4.422;2023-07-29T00:39:41;19.20;76.08
68943;DHT22;60852;52.190;4.422;2023-07-29T00:42:07;19.20;76.03
68943;DHT22;60852;52.190;4.422;2023-07-29T00:44:32;19.16;76.08
68943;DHT22;60852;52.190;4.422;2023-07-29T00:47:02;19.16;75.98
68943;DHT22;60852;52.190;4.422;2023-07-29T00:49:28;19.19;75.88
68943;DHT22;60852;52.190;4.422;2023-07-29T00:51:54;19.15;75.74
68943;DHT22;60852;52.190;4.422;2023-07-29T00:54:20;19.13;75.95
68943;DHT22;60852;52.190;4.422;2023-07-29T00:56:45;19.08;75.91
68943;DHT22;60852;52.190;4.422;2023-07-29T00:59:11;19.06;76.09
68943;DHT22;60852;52.190;4.422;2023-07-29T01:01:37;19.08;76.13
68943;DHT22;60852;52.190;4.422;2023-07-29T01:04:02;19.05;76.06
68943;DHT22;60852;52.190;4.422;2023-07-29T01:06:50;19.00;76.28
68943;DHT22;60852;52.190;4.422;2023-07-29T01:12:19;18.99;76.51
68943;DHT22;60852;52.190;4.422;2023-07-29T01:17:30;19.00;76.72
68943;DHT22;60852;52.190;4.422;2023-07-29T01:20:13;19.02;76.72
68943;DHT22;60852;52.190;4.422;2023-07-29T01:22:40;18.99;76.77
68943;DHT22;60852;52.190;4.422;2023-07-29T01:25:06;18.96;76.97
68943;DHT22;60852;52.190;4.422;2023-07-29T01:27:31;18.96;77.17
68943;DHT22;60852;52.190;4.422;2023-07-29T01:29:58;18.98;77.20
68943;DHT22;60852;52.190;4.422;2023-07-29T01:32:53;18.96;77.34
68943;DHT22;60852;52.190;4.422;2023-07-29T01:35:31;18.92;77.61
68943;DHT22;60852;52.190;4.422;2023-07-29T01:38:12;18.94;77.74
68943;DHT22;60852;52.190;4.422;2023-07-29T01:40:40;18.95;77.78
68943;DHT22;60852;52.190;4.422;2023-07-29T01:43:05;18.95;77.97
68943;DHT22;60852;52.190;4.422;2023-07-29T01:45:33;18.98;77.96
68943;DHT22;60852;52.190;4.422;2023-07-29T01:48:04;19.00;77.95
68943;DHT22;60852;52.190;4.422;2023-07-29T01:50:30;19.03;77.76
68943;DHT22;60852;52.190;4.422;2023-07-29T01:52:57;19.00;77.86
68943;DHT22;60852;52.190;4.422;2023-07-29T01:55:23;18.99;77.95
68943;DHT22;60852;52.190;4.422;2023-07-29T01:57:48;18.95;78.08
68943;DHT22;60852;52.190;4.422;2023-07-29T02:00:15;18.92;78.24
68943;DHT22;60852;52.190;4.422;2023-07-29T02:02:40;18.96;78.26
68943;DHT22;60852;52.190;4.422;2023-07-29T02:05:06;18.99;78.06
68943;DHT22;60852;52.190;4.422;2023-07-29T02:07:31;18.96;78.35
68943;DHT22;60852;52.190;4.422;2023-07-29T02:09:56;18.94;78.56
68943;DHT22;60852;52.190;4.422;2023-07-29T02:12:22;18.94;78.77
68943;DHT22;60852;52.190;4.422;2023-07-29T02:14:47;18.95;78.73
68943;DHT22;60852;52.190;4.422;2023-07-29T02:17:13;18.99;78.83
68943;DHT22;60852;52.190;4.422;2023-07-29T02:19:38;19.00;78.88
68943;DHT22;60852;52.190;4.422;2023-07-29T02:22:04;18.99;78.72
68943;DHT22;60852;52.190;4.422;2023-07-29T02:24:29;18.99;78.87
68943;DHT22;60852;52.190;4.422;2023-07-29T02:26:55;18.99;78.88
68943;DHT22;60852;52.190;4.422;2023-07-29T02:29:20;18.99;78.95
68943;DHT22;60852;52.190;4.422;2023-07-29T02:31:46;19.02;78.93
68943;DHT22;60852;52.190;4.422;2023-07-29T02:34:13;19.03;79.06
68943;DHT22;60852;52.190;4.422;2023-07-29T02:36:38;19.05;79.18
68943;DHT22;60852;52.190;4.422;2023-07-29T02:39:04;19.06;79.35
68943;DHT22;60852;52.190;4.422;2023-07-29T02:41:29;19.03;79.44
68943;DHT22;60852;52.190;4.422;2023-07-29T02:43:55;19.06;79.44
68943;DHT22;60852;52.190;4.422;2023-07-29T02:46:20;19.03;79.46
68943;DHT22;60852;52.190;4.422;2023-07-29T02:48:46;19.03;79.41
68943;DHT22;60852;52.190;4.422;2023-07-29T02:51:12;19.05;79.34
68943;DHT22;60852;52.190;4.422;2023-07-29T02:53:37;19.06;79.48
68943;DHT22;60852;52.190;4.422;2023-07-29T02:56:04;19.05;79.43
68943;DHT22;60852;52.190;4.422;2023-07-29T02:58:29;18.99;79.72
68943;DHT22;60852;52.190;4.422;2023-07-29T03:01:02;18.99;79.72
68943;DHT22;60852;52.190;4.422;2023-07-29T03:03:28;19.05;79.79
68943;DHT22;60852;52.190;4.422;2023-07-29T03:06:02;19.05;79.83
68943;DHT22;60852;52.190;4.422;2023-07-29T03:08:27;19.00;79.77
68943;DHT22;60852;52.190;4.422;2023-07-29T03:10:53;19.06;80.00
68943;DHT22;60852;52.190;4.422;2023-07-29T03:13:19;19.08;79.93
68943;DHT22;60852;52.190;4.422;2023-07-29T03:15:45;19.08;79.82
68943;DHT22;60852;52.190;4.422;2023-07-29T03:18:10;19.09;80.02
68943;DHT22;60852;52.190;4.422;2023-07-29T03:20:35;19.09;80.14
68943;DHT22;60852;52.190;4.422;2023-07-29T03:23:01;19.03;80.27
68943;DHT22;60852;52.190;4.422;2023-07-29T03:25:28;19.00;80.54
68943;DHT22;60852;52.190;4.422;2023-07-29T03:27:54;19.06;80.50
68943;DHT22;60852;52.190;4.422;2023-07-29T03:30:21;19.08;80.36
68943;DHT22;60852;52.190;4.422;2023-07-29T03:32:48;19.03;80.54
68943;DHT22;60852;52.190;4.422;2023-07-29T03:35:14;19.10;80.56
68943;DHT22;60852;52.190;4.422;2023-07-29T03:37:40;19.09;80.62
68943;DHT22;60852;52.190;4.422;2023-07-29T03:40:07;19.10;80.45
68943;DHT22;60852;52.190;4.422;2023-07-29T03:42:33;19.13;80.47
68943;DHT22;60852;52.190;4.422;2023-07-29T03:44:58;19.15;80.28
68943;DHT22;60852;52.190;4.422;2023-07-29T03:47:24;19.19;80.16
68943;DHT22;60852;52.190;4.422;2023-07-29T03:49:49;19.19;80.13
68943;DHT22;60852;52.190;4.422;2023-07-29T03:52:15;19.23;80.13
68943;DHT22;60852;52.190;4.422;2023-07-29T03:54:40;19.27;80.03
68943;DHT22;60852;52.190;4.422;2023-07-29T03:57:06;19.31;79.72
68943;DHT22;60852;52.190;4.422;2023-07-29T03:59:32;19.29;79.76
68943;DHT22;60852;52.190;4.422;2023-07-29T04:01:57;19.34;79.73
68943;DHT22;60852;52.190;4.422;2023-07-29T04:04:23;19.37;79.69
68943;DHT22;60852;52.190;4.422;2023-07-29T04:06:48;19.39;79.88
68943;DHT22;60852;52.190;4.422;2023-07-29T04:09:14;19.40;79.83
68943;DHT22;60852;52.190;4.422;2023-07-29T04:11:39;19.37;80.09
68943;DHT22;60852;52.190;4.422;2023-07-29T04:14:05;19.31;80.21
68943;DHT22;60852;52.190;4.422;2023-07-29T04:16:30;19.37;80.16
68943;DHT22;60852;52.190;4.422;2023-07-29T04:18:56;19.41;80.14
68943;DHT22;60852;52.190;4.422;2023-07-29T04:21:21;19.45;79.90
68943;DHT22;60852;52.190;4.422;2023-07-29T04:23:47;19.39;79.98
68943;DHT22;60852;52.190;4.422;2023-07-29T04:26:12;19.36;80.41
68943;DHT22;60852;52.190;4.422;2023-07-29T04:28:38;19.40;80.42
68943;DHT22;60852;52.190;4.422;2023-07-29T04:31:03;19.45;80.34
68943;DHT22;60852;52.190;4.422;2023-07-29T04:33:29;19.41;80.58
68943;DHT22;60852;52.190;4.422;2023-07-29T04:35:55;19.41;80.76
68943;DHT22;60852;52.190;4.422;2023-07-29T04:38:20;19.46;80.57
68943;DHT22;60852;52.190;4.422;2023-07-29T04:40:48;19.40;80.21
68943;DHT22;60852;52.190;4.422;2023-07-29T04:43:14;19.45;80.17
68943;DHT22;60852;52.190;4.422;2023-07-29T04:45:44;19.46;80.06
68943;DHT22;60852;52.190;4.422;2023-07-29T04:48:09;19.47;80.00
68943;DHT22;60852;52.190;4.422;2023-07-29T04:50:35;19.57;79.92
68943;DHT22;60852;52.190;4.422;2023-07-29T04:53:00;19.63;79.67
68943;DHT22;60852;52.190;4.422;2023-07-29T04:55:26;19.64;79.43
68943;DHT22;60852;52.190;4.422;2023-07-29T04:57:51;19.64;79.58
68943;DHT22;60852;52.190;4.422;2023-07-29T05:00:17;19.74;79.42
68943;DHT22;60852;52.190;4.422;2023-07-29T05:02:42;19.70;79.33
68943;DHT22;60852;52.190;4.422;2023-07-29T05:05:08;19.70;79.57
68943;DHT22;60852;52.190;4.422;2023-07-29T05:07:33;19.73;79.69
68943;DHT22;60852;52.190;4.422;2023-07-29T05:09:59;19.79;79.49
68943;DHT22;60852;52.190;4.422;2023-07-29T05:12:24;19.78;79.39
68943;DHT22;60852;52.190;4.422;2023-07-29T05:14:50;19.82;79.47
68943;DHT22;60852;52.190;4.422;2023-07-29T05:17:15;19.77;79.42
68943;DHT22;60852;52.190;4.422;2023-07-29T05:19:41;19.75;79.54
68943;DHT22;60852;52.190;4.422;2023-07-29T05:22:06;19.73;79.16
68943;DHT22;60852;52.190;4.422;2023-07-29T05:24:32;19.66;79.43
68943;DHT22;60852;52.190;4.422;2023-07-29T05:26:57;19.67;79.66
68943;DHT22;60852;52.190;4.422;2023-07-29T05:29:23;19.70;79.44
68943;DHT22;60852;52.190;4.422;2023-07-29T05:31:48;19.73;79.43
68943;DHT22;60852;52.190;4.422;2023-07-29T05:34:13;19.82;79.40
68943;DHT22;60852;52.190;4.422;2023-07-29T05:36:39;19.97;78.90
68943;DHT22;60852;52.190;4.422;2023-07-29T05:39:04;19.88;78.38
68943;DHT22;60852;52.190;4.422;2023-07-29T05:41:30;19.88;78.52
68943;DHT22;60852;52.190;4.422;2023-07-29T05:43:55;19.87;78.45
68943;DHT22;60852;52.190;4.422;2023-07-29T05:46:21;19.85;78.71
68943;DHT22;60852;52.190;4.422;2023-07-29T05:48:46;19.84;78.91
68943;DHT22;60852;52.190;4.422;2023-07-29T05:51:12;19.91;78.95
68943;DHT22;60852;52.190;4.422;2023-07-29T05:53:37;19.85;78.99
68943;DHT22;60852;52.190;4.422;2023-07-29T05:56:03;19.73;79.26
68943;DHT22;60852;52.190;4.422;2023-07-29T05:58:28;19.73;79.42
68943;DHT22;60852;52.190;4.422;2023-07-29T06:00:57;19.78;79.51
68943;DHT22;60852;52.190;4.422;2023-07-29T06:03:22;19.82;79.11
68943;DHT22;60852;52.190;4.422;2023-07-29T06:05:49;19.78;79.04
68943;DHT22;60852;52.190;4.422;2023-07-29T06:08:15;19.74;79.53
68943;DHT22;60852;52.190;4.422;2023-07-29T06:10:40;19.79;79.52
68943;DHT22;60852;52.190;4.422;2023-07-29T06:13:06;19.74;79.73
68943;DHT22;60852;52.190;4.422;2023-07-29T06:15:31;19.75;79.64
68943;DHT22;60852;52.190;4.422;2023-07-29T06:17:57;19.75;79.81
68943;DHT22;60852;52.190;4.422;2023-07-29T06:20:23;19.81;79.80
68943;DHT22;60852;52.190;4.422;2023-07-29T06:22:48;19.84;79.68
68943;DHT22;60852;52.190;4.422;2023-07-29T06:25:14;19.84;79.46
68943;DHT22;60852;52.190;4.422;2023-07-29T06:27:39;19.94;79.68
68943;DHT22;60852;52.190;4.422;2023-07-29T06:30:05;19.98;79.53
68943;DHT22;60852;52.190;4.422;2023-07-29T06:32:31;20.01;79.43
68943;DHT22;60852;52.190;4.422;2023-07-29T06:34:57;19.97;79.05
68943;DHT22;60852;52.190;4.422;2023-07-29T06:37:22;19.89;79.64
68943;DHT22;60852;52.190;4.422;2023-07-29T06:39:48;19.91;80.19
68943;DHT22;60852;52.190;4.422;2023-07-29T06:42:13;19.99;80.44
68943;DHT22;60852;52.190;4.422;2023-07-29T06:44:39;20.08;80.27
68943;DHT22;60852;52.190;4.422;2023-07-29T06:47:05;20.14;79.78
68943;DHT22;60852;52.190;4.422;2023-07-29T06:49:31;20.28;79.66
68943;DHT22;60852;52.190;4.422;2023-07-29T06:51:56;20.30;78.93
68943;DHT22;60852;52.190;4.422;2023-07-29T06:54:25;20.45;78.50
68943;DHT22;60852;52.190;4.422;2023-07-29T06:56:53;20.55;78.35
68943;DHT22;60852;52.190;4.422;2023-07-29T06:59:19;20.42;77.94
68943;DHT22;60852;52.190;4.422;2023-07-29T07:01:44;20.24;77.46
68943;DHT22;60852;52.190;4.422;2023-07-29T07:04:10;20.18;77.77
68943;DHT22;60852;52.190;4.422;2023-07-29T07:06:35;20.40;76.75
68943;DHT22;60852;52.190;4.422;2023-07-29T07:09:01;20.52;76.24
68943;DHT22;60852;52.190;4.422;2023-07-29T07:11:26;20.67;75.91
68943;DHT22;60852;52.190;4.422;2023-07-29T07:13:51;20.87;74.86
68943;DHT22;60852;52.190;4.422;2023-07-29T07:16:17;21.10;73.51
68943;DHT22;60852;52.190;4.422;2023-07-29T07:18:43;21.37;72.79
68943;DHT22;60852;52.190;4.422;2023-07-29T07:21:08;21.63;72.05
68943;DHT22;60852;52.190;4.422;2023-07-29T07:23:34;21.81;71.58
68943;DHT22;60852;52.190;4.422;2023-07-29T07:26:00;21.82;69.77
68943;DHT22;60852;52.190;4.422;2023-07-29T07:28:25;21.55;70.40
68943;DHT22;60852;52.190;4.422;2023-07-29T07:30:51;21.25;71.17
68943;DHT22;60852;52.190;4.422;2023-07-29T07:33:16;21.21;71.47
68943;DHT22;60852;52.190;4.422;2023-07-29T07:35:42;21.20;71.66
68943;DHT22;60852;52.190;4.422;2023-07-29T07:38:08;21.11;72.22
68943;DHT22;60852;52.190;4.422;2023-07-29T07:40:35;20.96;73.34
68943;DHT22;60852;52.190;4.422;2023-07-29T07:43:01;20.72;74.44
68943;DHT22;60852;52.190;4.422;2023-07-29T07:45:27;20.65;74.74
68943;DHT22;60852;52.190;4.422;2023-07-29T07:47:52;20.55;75.16
68943;DHT22;60852;52.190;4.422;2023-07-29T07:50:20;20.49;75.72
68943;DHT22;60852;52.190;4.422;2023-07-29T07:52:46;20.47;76.26
68943;DHT22;60852;52.190;4.422;2023-07-29T07:55:12;20.52;76.68
68943;DHT22;60852;52.190;4.422;2023-07-29T07:57:37;20.65;76.44
68943;DHT22;60852;52.190;4.422;2023-07-29T08:00:03;20.81;76.13
68943;DHT22;60852;52.190;4.422;2023-07-29T08:02:30;20.84;74.71
68943;DHT22;60852;52.190;4.422;2023-07-29T08:04:55;20.67;74.86
68943;DHT22;60852;52.190;4.422;2023-07-29T08:07:21;20.63;75.11
68943;DHT22;60852;52.190;4.422;2023-07-29T08:09:46;20.62;75.03
68943;DHT22;60852;52.190;4.422;2023-07-29T08:12:12;20.81;74.92
68943;DHT22;60852;52.190;4.422;2023-07-29T08:14:38;20.96;73.94
68943;DHT22;60852;52.190;4.422;2023-07-29T08:17:03;21.17;73.67
68943;DHT22;60852;52.190;4.422;2023-07-29T08:19:29;21.31;72.87
68943;DHT22;60852;52.190;4.422;2023-07-29T08:21:54;21.21;72.34
68943;DHT22;60852;52.190;4.422;2023-07-29T08:24:20;21.18;72.22
68943;DHT22;60852;52.190;4.422;2023-07-29T08:26:45;21.25;71.87
68943;DHT22;60852;52.190;4.422;2023-07-29T08:29:11;21.24;71.31
68943;DHT22;60852;52.190;4.422;2023-07-29T08:31:37;21.24;71.44
68943;DHT22;60852;52.190;4.422;2023-07-29T08:34:03;21.30;71.49
68943;DHT22;60852;52.190;4.422;2023-07-29T08:36:28;21.25;71.69
68943;DHT22;60852;52.190;4.422;2023-07-29T08:38:53;21.35;71.65
68943;DHT22;60852;52.190;4.422;2023-07-29T08:41:35;21.25;71.69
68943;DHT22;60852;52.190;4.422;2023-07-29T08:44:23;21.38;72.28
68943;DHT22;60852;52.190;4.422;2023-07-29T08:46:50;21.55;72.12
68943;DHT22;60852;52.190;4.422;2023-07-29T08:49:18;21.76;71.57
68943;DHT22;60852;52.190;4.422;2023-07-29T08:51:46;22.09;70.51
68943;DHT22;60852;52.190;4.422;2023-07-29T08:54:13;22.36;70.43
68943;DHT22;60852;52.190;4.422;2023-07-29T08:56:41;22.51;69.30
68943;DHT22;60852;52.190;4.422;2023-07-29T08:59:08;22.32;69.80
68943;DHT22;60852;52.190;4.422;2023-07-29T09:01:34;22.14;69.92
68943;DHT22;60852;52.190;4.422;2023-07-29T09:03:59;22.09;70.15
68943;DHT22;60852;52.190;4.422;2023-07-29T09:06:26;22.30;70.62
68943;DHT22;60852;52.190;4.422;2023-07-29T09:08:54;22.53;69.53
68943;DHT22;60852;52.190;4.422;2023-07-29T09:11:21;22.50;68.38
68943;DHT22;60852;52.190;4.422;2023-07-29T09:13:47;22.07;69.16
68943;DHT22;60852;52.190;4.422;2023-07-29T09:16:14;21.81;70.24
68943;DHT22;60852;52.190;4.422;2023-07-29T09:18:40;21.69;70.93
68943;DHT22;60852;52.190;4.422;2023-07-29T09:21:05;21.66;70.95
68943;DHT22;60852;52.190;4.422;2023-07-29T09:23:42;21.54;71.49
68943;DHT22;60852;52.190;4.422;2023-07-29T09:26:07;21.56;71.72
68943;DHT22;60852;52.190;4.422;2023-07-29T09:28:40;21.65;71.53
68943;DHT22;60852;52.190;4.422;2023-07-29T09:31:06;21.73;71.47
68943;DHT22;60852;52.190;4.422;2023-07-29T09:33:35;21.65;71.79
68943;DHT22;60852;52.190;4.422;2023-07-29T09:36:09;21.65;72.34
68943;DHT22;60852;52.190;4.422;2023-07-29T09:38:35;21.51;73.01
68943;DHT22;60852;52.190;4.422;2023-07-29T09:41:01;21.42;73.66
68943;DHT22;60852;52.190;4.422;2023-07-29T09:43:35;21.44;73.79
68943;DHT22;60852;52.190;4.422;2023-07-29T09:46:02;21.28;73.57
68943;DHT22;60852;52.190;4.422;2023-07-29T09:48:28;21.41;73.95
68943;DHT22;60852;52.190;4.422;2023-07-29T09:50:56;21.49;72.93
68943;DHT22;60852;52.190;4.422;2023-07-29T09:53:22;21.51;72.53
68943;DHT22;60852;52.190;4.422;2023-07-29T09:55:48;21.42;73.17
68943;DHT22;60852;52.190;4.422;2023-07-29T09:58:21;21.44;74.00
68943;DHT22;60852;52.190;4.422;2023-07-29T10:00:51;21.30;74.32
68943;DHT22;60852;52.190;4.422;2023-07-29T10:03:19;21.30;73.95
68943;DHT22;60852;52.190;4.422;2023-07-29T10:05:46;21.10;72.92
68943;DHT22;60852;52.190;4.422;2023-07-29T10:08:13;20.98;72.60
68943;DHT22;60852;52.190;4.422;2023-07-29T10:10:41;21.04;73.78
68943;DHT22;60852;52.190;4.422;2023-07-29T10:13:07;21.24;74.26
68943;DHT22;60852;52.190;4.422;2023-07-29T10:15:35;21.42;74.37
68943;DHT22;60852;52.190;4.422;2023-07-29T10:18:02;21.49;74.27
68943;DHT22;60852;52.190;4.422;2023-07-29T10:20:30;21.39;74.44
68943;DHT22;60852;52.190;4.422;2023-07-29T10:22:59;21.41;74.30
68943;DHT22;60852;52.190;4.422;2023-07-29T10:25:36;21.41;74.59
68943;DHT22;60852;52.190;4.422;2023-07-29T10:28:05;21.59;74.84
68943;DHT22;60852;52.190;4.422;2023-07-29T10:30:31;21.82;74.48
68943;DHT22;60852;52.190;4.422;2023-07-29T10:32:59;21.73;73.62
68943;DHT22;60852;52.190;4.422;2023-07-29T10:35:27;21.72;73.34
68943;DHT22;60852;52.190;4.422;2023-07-29T10:37:53;21.69;73.80
68943;DHT22;60852;52.190;4.422;2023-07-29T10:40:20;21.58;73.53
68943;DHT22;60852;52.190;4.422;2023-07-29T10:43:11;21.72;74.22
68943;DHT22;60852;52.190;4.422;2023-07-29T10:45:39;21.71;74.44
68943;DHT22;60852;52.190;4.422;2023-07-29T10:48:09;21.82;73.54
68943;DHT22;60852;52.190;4.422;2023-07-29T10:50:35;21.99;72.06
68943;DHT22;60852;52.190;4.422;2023-07-29T10:53:00;22.03;69.71
68943;DHT22;60852;52.190;4.422;2023-07-29T10:55:33;22.09;69.64
68943;DHT22;60852;52.190;4.422;2023-07-29T11:00:31;22.10;70.31
68943;DHT22;60852;52.190;4.422;2023-07-29T11:03:06;22.07;70.46
68943;DHT22;60852;52.190;4.422;2023-07-29T11:05:44;21.83;71.03
68943;DHT22;60852;52.190;4.422;2023-07-29T11:08:29;21.69;72.29
68943;DHT22;60852;52.190;4.422;2023-07-29T11:11:13;21.71;72.66
68943;DHT22;60852;52.190;4.422;2023-07-29T11:13:38;21.83;72.91
68943;DHT22;60852;52.190;4.422;2023-07-29T11:16:05;21.76;72.13
68943;DHT22;60852;52.190;4.422;2023-07-29T11:18:35;21.73;71.82
68943;DHT22;60852;52.190;4.422;2023-07-29T11:21:02;21.69;72.87
68943;DHT22;60852;52.190;4.422;2023-07-29T11:23:35;21.66;72.82
68943;DHT22;60852;52.190;4.422;2023-07-29T11:26:03;21.67;72.93
68943;DHT22;60852;52.190;4.422;2023-07-29T11:28:29;21.82;73.12
68943;DHT22;60852;52.190;4.422;2023-07-29T11:30:55;21.88;73.08
68943;DHT22;60852;52.190;4.422;2023-07-29T11:33:26;22.02;73.16
68943;DHT22;60852;52.190;4.422;2023-07-29T11:35:54;22.12;73.00
68943;DHT22;60852;52.190;4.422;2023-07-29T11:38:22;22.25;72.80
68943;DHT22;60852;52.190;4.422;2023-07-29T11:40:55;22.40;72.61
68943;DHT22;60852;52.190;4.422;2023-07-29T11:43:21;22.44;72.12
68943;DHT22;60852;52.190;4.422;2023-07-29T11:45:46;22.41;71.64
68943;DHT22;60852;52.190;4.422;2023-07-29T11:48:12;22.41;71.76
68943;DHT22;60852;52.190;4.422;2023-07-29T11:50:37;22.32;70.90
68943;DHT22;60852;52.190;4.422;2023-07-29T11:53:03;22.34;71.82
68943;DHT22;60852;52.190;4.422;2023-07-29T11:55:28;22.61;70.14
68943;DHT22;60852;52.190;4.422;2023-07-29T11:57:54;22.64;70.08
68943;DHT22;60852;52.190;4.422;2023-07-29T12:00:21;22.88;70.12
68943;DHT22;60852;52.190;4.422;2023-07-29T12:02:48;22.76;68.81
68943;DHT22;60852;52.190;4.422;2023-07-29T12:05:15;22.90;70.32
68943;DHT22;60852;52.190;4.422;2023-07-29T12:07:43;23.19;69.32
68943;DHT22;60852;52.190;4.422;2023-07-29T12:10:10;23.20;68.07
68943;DHT22;60852;52.190;4.422;2023-07-29T12:12:46;23.30;69.28
68943;DHT22;60852;52.190;4.422;2023-07-29T12:15:12;23.40;68.61
68943;DHT22;60852;52.190;4.422;2023-07-29T12:17:41;23.22;67.59
68943;DHT22;60852;52.190;4.422;2023-07-29T12:20:10;22.99;68.45
68943;DHT22;60852;52.190;4.422;2023-07-29T12:22:36;23.11;68.52
68943;DHT22;60852;52.190;4.422;2023-07-29T12:25:02;23.16;68.36
68943;DHT22;60852;52.190;4.422;2023-07-29T12:27:30;23.30;69.01
68943;DHT22;60852;52.190;4.422;2023-07-29T12:29:55;23.36;67.48
68943;DHT22;60852;52.190;4.422;2023-07-29T12:32:25;23.27;68.25
68943;DHT22;60852;52.190;4.422;2023-07-29T12:34:53;23.13;67.36
68943;DHT22;60852;52.190;4.422;2023-07-29T12:37:19;23.22;68.86
68943;DHT22;60852;52.190;4.422;2023-07-29T12:39:44;23.43;67.64
68943;DHT22;60852;52.190;4.422;2023-07-29T12:42:10;23.42;66.77
68943;DHT22;60852;52.190;4.422;2023-07-29T12:44:37;23.23;67.92
68943;DHT22;60852;52.190;4.422;2023-07-29T12:47:05;23.34;67.59
68943;DHT22;60852;52.190;4.422;2023-07-29T12:49:31;23.27;66.99
68943;DHT22;60852;52.190;4.422;2023-07-29T12:51:58;22.98;67.96
68943;DHT22;60852;52.190;4.422;2023-07-29T12:54:24;22.91;67.45
68943;DHT22;60852;52.190;4.422;2023-07-29T12:56:50;22.90;68.14
68943;DHT22;60852;52.190;4.422;2023-07-29T12:59:16;23.01;68.16
68943;DHT22;60852;52.190;4.422;2023-07-29T13:01:41;23.05;68.09
68943;DHT22;60852;52.190;4.422;2023-07-29T13:04:07;23.06;68.30
68943;DHT22;60852;52.190;4.422;2023-07-29T13:06:32;23.11;67.78
68943;DHT22;60852;52.190;4.422;2023-07-29T13:08:57;22.76;68.63
68943;DHT22;60852;52.190;4.422;2023-07-29T13:11:23;22.48;69.02
68943;DHT22;60852;52.190;4.422;2023-07-29T13:13:49;22.54;68.31
68943;DHT22;60852;52.190;4.422;2023-07-29T13:16:15;22.29;68.28
68943;DHT22;60852;52.190;4.422;2023-07-29T13:18:43;22.34;68.68
68943;DHT22;60852;52.190;4.422;2023-07-29T13:21:10;22.41;67.45
68943;DHT22;60852;52.190;4.422;2023-07-29T13:23:35;22.50;67.23
68943;DHT22;60852;52.190;4.422;2023-07-29T13:26:01;22.50;66.44
68943;DHT22;60852;52.190;4.422;2023-07-29T13:28:27;22.74;66.62
68943;DHT22;60852;52.190;4.422;2023-07-29T13:30:52;22.96;66.31
68943;DHT22;60852;52.190;4.422;2023-07-29T13:33:18;23.23;66.21
68943;DHT22;60852;52.190;4.422;2023-07-29T13:35:43;23.38;65.35
68943;DHT22;60852;52.190;4.422;2023-07-29T13:38:09;23.50;65.61
68943;DHT22;60852;52.190;4.422;2023-07-29T13:40:35;23.50;65.54
68943;DHT22;60852;52.190;4.422;2023-07-29T13:43:00;23.33;65.54
68943;DHT22;60852;52.190;4.422;2023-07-29T13:45:25;23.32;66.03
68943;DHT22;60852;52.190;4.422;2023-07-29T13:47:51;23.33;67.00
68943;DHT22;60852;52.190;4.422;2023-07-29T13:50:17;23.39;66.37
68943;DHT22;60852;52.190;4.422;2023-07-29T13:52:43;23.42;67.36
68943;DHT22;60852;52.190;4.422;2023-07-29T13:55:09;23.23;66.30
68943;DHT22;60852;52.190;4.422;2023-07-29T13:57:37;23.19;66.33
68943;DHT22;60852;52.190;4.422;2023-07-29T14:00:02;23.33;66.94
68943;DHT22;60852;52.190;4.422;2023-07-29T14:02:28;23.19;65.12
68943;DHT22;60852;52.190;4.422;2023-07-29T14:04:56;23.01;66.81
68943;DHT22;60852;52.190;4.422;2023-07-29T14:07:21;23.12;67.27
68943;DHT22;60852;52.190;4.422;2023-07-29T14:09:47;23.11;66.63
68943;DHT22;60852;52.190;4.422;2023-07-29T14:12:12;23.03;66.46
68943;DHT22;60852;52.190;4.422;2023-07-29T14:14:40;22.85;66.22
68943;DHT22;60852;52.190;4.422;2023-07-29T14:17:06;22.95;67.24
68943;DHT22;60852;52.190;4.422;2023-07-29T14:19:32;23.06;66.32
68943;DHT22;60852;52.190;4.422;2023-07-29T14:21:58;23.16;66.42
68943;DHT22;60852;52.190;4.422;2023-07-29T14:24:23;23.13;65.98
68943;DHT22;60852;52.190;4.422;2023-07-29T14:26:49;23.05;66.63
68943;DHT22;60852;52.190;4.422;2023-07-29T14:29:14;23.08;65.66
68943;DHT22;60852;52.190;4.422;2023-07-29T14:31:40;22.92;66.06
68943;DHT22;60852;52.190;4.422;2023-07-29T14:34:05;22.96;66.24
68943;DHT22;60852;52.190;4.422;2023-07-29T14:36:31;23.05;66.53
68943;DHT22;60852;52.190;4.422;2023-07-29T14:38:56;22.92;65.63
68943;DHT22;60852;52.190;4.422;2023-07-29T14:41:22;23.02;67.08
68943;DHT22;60852;52.190;4.422;2023-07-29T14:43:47;23.13;65.98
68943;DHT22;60852;52.190;4.422;2023-07-29T14:46:13;22.91;65.29
68943;DHT22;60852;52.190;4.422;2023-07-29T14:48:38;22.94;66.70
68943;DHT22;60852;52.190;4.422;2023-07-29T14:51:03;22.88;66.71
68943;DHT22;60852;52.190;4.422;2023-07-29T14:53:29;22.61;66.55
68943;DHT22;60852;52.190;4.422;2023-07-29T14:55:54;22.65;67.33
68943;DHT22;60852;52.190;4.422;2023-07-29T14:58:20;22.65;66.50
68943;DHT22;60852;52.190;4.422;2023-07-29T15:00:45;22.68;66.85
68943;DHT22;60852;52.190;4.422;2023-07-29T15:03:11;22.71;66.98
68943;DHT22;60852;52.190;4.422;2023-07-29T15:05:36;22.88;66.12
68943;DHT22;60852;52.190;4.422;2023-07-29T15:08:02;22.92;66.23
68943;DHT22;60852;52.190;4.422;2023-07-29T15:10:27;22.99;65.53
68943;DHT22;60852;52.190;4.422;2023-07-29T15:12:53;22.92;65.46
68943;DHT22;60852;52.190;4.422;2023-07-29T15:15:18;23.01;66.13
68943;DHT22;60852;52.190;4.422;2023-07-29T15:17:44;23.08;65.46
68943;DHT22;60852;52.190;4.422;2023-07-29T15:20:10;23.13;65.00
68943;DHT22;60852;52.190;4.422;2023-07-29T15:22:36;23.12;65.58
68943;DHT22;60852;52.190;4.422;2023-07-29T15:25:01;23.08;66.13
68943;DHT22;60852;52.190;4.422;2023-07-29T15:27:28;23.03;65.46
68943;DHT22;60852;52.190;4.422;2023-07-29T15:29:54;22.87;66.18
68943;DHT22;60852;52.190;4.422;2023-07-29T15:32:19;22.85;66.12
68943;DHT22;60852;52.190;4.422;2023-07-29T15:34:45;22.88;65.04